createdAt,value
2017-12-23T00:00:39.661Z,0
2017-12-23T00:01:39.465Z,0
2017-12-23T00:02:39.799Z,0
2017-12-23T00:03:40.301Z,0
2017-12-23T00:04:40.318Z,0
2017-12-23T00:05:40.301Z,0
2017-12-23T00:06:40.301Z,0
2017-12-23T00:07:40.327Z,0
2017-12-23T00:08:40.052Z,0
2017-12-23T00:09:40.396Z,0
2017-12-23T00:10:39.351Z,0
2017-12-23T00:11:40.179Z,0
2017-12-23T00:12:40.440Z,0
2017-12-23T00:13:39.906Z,0
2017-12-23T00:14:39.899Z,0
2017-12-23T00:15:40.436Z,0
2017-12-23T00:16:40.182Z,0
2017-12-23T00:17:40.567Z,0
2017-12-23T00:18:40.216Z,0
2017-12-23T00:19:40.528Z,0
2017-12-23T00:20:40.244Z,0
2017-12-23T00:21:40.009Z,0
2017-12-23T00:22:40.022Z,0
2017-12-23T00:23:40.547Z,0
2017-12-23T00:24:40.289Z,0
2017-12-23T00:25:40.562Z,0
2017-12-23T00:26:39.797Z,0
2017-12-23T00:27:40.460Z,0
2017-12-23T00:28:40.601Z,0
2017-12-23T00:29:40.376Z,0
2017-12-23T00:30:40.624Z,0
2017-12-23T00:31:40.388Z,0
2017-12-23T00:32:40.312Z,0
2017-12-23T00:33:40.418Z,0
2017-12-23T00:34:40.445Z,0
2017-12-23T00:35:40.192Z,0
2017-12-23T00:36:40.519Z,0
2017-12-23T00:37:40.481Z,0
2017-12-23T00:38:39.992Z,0
2017-12-23T00:39:40.274Z,0
2017-12-23T00:40:40.525Z,0
2017-12-23T00:41:40.041Z,0
2017-12-23T00:42:40.819Z,0
2017-12-23T00:43:40.331Z,0
2017-12-23T00:44:40.592Z,0
2017-12-23T00:45:40.860Z,0
2017-12-23T00:46:40.367Z,0
2017-12-23T00:47:40.683Z,0
2017-12-23T00:48:40.646Z,0
2017-12-23T00:49:40.910Z,0
2017-12-23T00:50:40.941Z,0
2017-12-23T00:51:40.453Z,0
2017-12-23T00:52:40.718Z,0
2017-12-23T00:53:40.742Z,0
2017-12-23T00:54:41.000Z,0
2017-12-23T00:55:40.767Z,0
2017-12-23T00:56:41.033Z,0
2017-12-23T00:57:40.801Z,0
2017-12-23T00:58:40.570Z,0
2017-12-23T00:59:40.581Z,0
2017-12-23T01:00:40.342Z,0
2017-12-23T01:01:40.868Z,0
2017-12-23T01:02:40.881Z,0
2017-12-23T01:03:40.901Z,0
2017-12-23T01:04:40.915Z,0
2017-12-23T01:05:40.988Z,0
2017-12-23T01:06:40.699Z,0
2017-12-23T01:07:40.966Z,0
2017-12-23T01:08:40.733Z,0
2017-12-23T01:09:40.495Z,0
2017-12-23T01:10:40.770Z,0
2017-12-23T01:11:41.036Z,0
2017-12-23T01:12:41.059Z,0
2017-12-23T01:13:40.815Z,0
2017-12-23T01:14:41.339Z,0
2017-12-23T01:15:41.101Z,0
2017-12-23T01:16:41.372Z,0
2017-12-23T01:17:41.435Z,0
2017-12-23T01:18:41.145Z,0
2017-12-23T01:19:41.170Z,0
2017-12-23T01:20:41.439Z,0
2017-12-23T01:21:41.453Z,0
2017-12-23T01:22:41.210Z,0
2017-12-23T01:23:41.233Z,0
2017-12-23T01:24:40.744Z,0
2017-12-23T01:25:41.009Z,0
2017-12-23T01:26:41.028Z,0
2017-12-23T01:27:41.544Z,0
2017-12-23T01:28:41.312Z,0
2017-12-23T01:29:41.326Z,0
2017-12-23T01:30:41.091Z,0
2017-12-23T01:31:41.612Z,0
2017-12-23T01:32:41.171Z,0
2017-12-23T01:33:40.888Z,0
2017-12-23T01:34:41.431Z,0
2017-12-23T01:35:41.426Z,0
2017-12-23T01:36:41.445Z,0
2017-12-23T01:37:40.950Z,0
2017-12-23T01:38:41.473Z,0
2017-12-23T01:39:41.491Z,0
2017-12-23T01:40:41.512Z,0
2017-12-23T01:41:41.526Z,0
2017-12-23T01:42:41.547Z,0
2017-12-23T01:43:41.553Z,0
2017-12-23T01:44:41.331Z,0
2017-12-23T01:45:41.335Z,0
2017-12-23T01:46:41.862Z,0
2017-12-23T01:47:41.675Z,0
2017-12-23T01:48:41.637Z,0
2017-12-23T01:49:41.394Z,0
2017-12-23T01:50:41.914Z,0
2017-12-23T01:51:41.679Z,0
2017-12-23T01:52:41.446Z,0
2017-12-23T01:53:41.973Z,0
2017-12-23T01:54:40.973Z,0
2017-12-23T01:55:41.504Z,0
2017-12-23T01:56:41.758Z,0
2017-12-23T01:57:41.785Z,0
2017-12-23T01:58:41.799Z,0
2017-12-23T01:59:41.334Z,0
2017-12-23T02:00:41.834Z,0
2017-12-23T02:01:41.864Z,0
2017-12-23T02:02:41.916Z,0
2017-12-23T02:03:41.629Z,0
2017-12-23T02:04:41.898Z,0
2017-12-23T02:05:41.412Z,0
2017-12-23T02:06:41.678Z,0
2017-12-23T02:07:41.966Z,0
2017-12-23T02:08:41.466Z,0
2017-12-23T02:09:41.983Z,0
2017-12-23T02:10:41.238Z,0
2017-12-23T02:11:41.760Z,0
2017-12-23T02:12:42.276Z,0
2017-12-23T02:13:42.044Z,0
2017-12-23T02:14:42.318Z,0
2017-12-23T02:15:42.075Z,0
2017-12-23T02:16:41.615Z,0
2017-12-23T02:17:42.153Z,0
2017-12-23T02:18:42.118Z,0
2017-12-23T02:19:42.142Z,0
2017-12-23T02:20:42.150Z,0
2017-12-23T02:21:42.424Z,0
2017-12-23T02:22:41.932Z,0
2017-12-23T02:23:42.203Z,0
2017-12-23T02:24:41.975Z,0
2017-12-23T02:25:41.984Z,0
2017-12-23T02:26:42.511Z,0
2017-12-23T02:27:42.523Z,0
2017-12-23T02:28:42.280Z,0
2017-12-23T02:29:42.300Z,0
2017-12-23T02:30:42.574Z,0
2017-12-23T02:31:42.077Z,0
2017-12-23T02:32:42.397Z,0
2017-12-23T02:33:42.629Z,0
2017-12-23T02:34:42.176Z,0
2017-12-23T02:35:42.414Z,0
2017-12-23T02:36:42.680Z,0
2017-12-23T02:37:42.706Z,0
2017-12-23T02:38:42.186Z,0
2017-12-23T02:39:42.220Z,0
2017-12-23T02:40:42.737Z,0
2017-12-23T02:41:42.490Z,0
2017-12-23T02:42:42.506Z,0
2017-12-23T02:43:42.011Z,0
2017-12-23T02:44:42.538Z,0
2017-12-23T02:45:42.550Z,0
2017-12-23T02:46:42.310Z,0
2017-12-23T02:47:42.633Z,0
2017-12-23T02:48:42.597Z,0
2017-12-23T02:49:42.611Z,0
2017-12-23T02:50:42.637Z,0
2017-12-23T02:51:42.138Z,0
2017-12-23T02:52:42.677Z,0
2017-12-23T02:53:42.932Z,0
2017-12-23T02:54:42.956Z,0
2017-12-23T02:55:42.714Z,0
2017-12-23T02:56:42.217Z,0
2017-12-23T02:57:42.747Z,0
2017-12-23T02:58:42.782Z,0
2017-12-23T02:59:42.767Z,0
2017-12-23T03:00:43.040Z,0
2017-12-23T03:01:42.801Z,0
2017-12-23T03:02:42.863Z,0
2017-12-23T03:03:42.577Z,0
2017-12-23T03:04:42.596Z,0
2017-12-23T03:05:42.608Z,0
2017-12-23T03:06:42.623Z,0
2017-12-23T03:07:42.389Z,0
2017-12-23T03:08:42.651Z,0
2017-12-23T03:09:42.925Z,0
2017-12-23T03:10:42.706Z,0
2017-12-23T03:11:42.958Z,0
2017-12-23T03:12:42.974Z,0
2017-12-23T03:13:42.990Z,0
2017-12-23T03:14:43.021Z,0
2017-12-23T03:15:43.273Z,0
2017-12-23T03:16:43.042Z,0
2017-12-23T03:17:43.119Z,0
2017-12-23T03:18:42.827Z,0
2017-12-23T03:19:43.083Z,0
2017-12-23T03:20:43.102Z,0
2017-12-23T03:21:43.118Z,0
2017-12-23T03:22:43.384Z,0
2017-12-23T03:23:42.700Z,0
2017-12-23T03:24:42.658Z,0
2017-12-23T03:25:42.934Z,0
2017-12-23T03:26:42.954Z,0
2017-12-23T03:27:43.213Z,0
2017-12-23T03:28:43.469Z,0
2017-12-23T03:29:42.741Z,0
2017-12-23T03:30:43.536Z,0
2017-12-23T03:31:43.537Z,0
2017-12-23T03:32:43.191Z,0
2017-12-23T03:33:43.318Z,0
2017-12-23T03:34:43.323Z,0
2017-12-23T03:35:43.080Z,0
2017-12-23T03:36:43.099Z,0
2017-12-23T03:37:43.371Z,0
2017-12-23T03:38:43.640Z,0
2017-12-23T03:39:42.897Z,0
2017-12-23T03:40:43.422Z,0
2017-12-23T03:41:43.425Z,0
2017-12-23T03:42:43.704Z,0
2017-12-23T03:43:43.459Z,0
2017-12-23T03:44:43.477Z,0
2017-12-23T03:45:43.745Z,0
2017-12-23T03:46:43.256Z,0
2017-12-23T03:47:43.342Z,0
2017-12-23T03:48:43.303Z,0
2017-12-23T03:49:43.297Z,0
2017-12-23T03:50:43.322Z,0
2017-12-23T03:51:43.340Z,0
2017-12-23T03:52:43.348Z,0
2017-12-23T03:53:43.873Z,0
2017-12-23T03:54:43.631Z,0
2017-12-23T03:55:43.914Z,0
2017-12-23T03:56:43.409Z,0
2017-12-23T03:57:43.177Z,0
2017-12-23T03:58:43.715Z,0
2017-12-23T03:59:43.455Z,0
2017-12-23T04:00:43.718Z,0
2017-12-23T04:01:43.997Z,0
2017-12-23T04:02:44.058Z,0
2017-12-23T04:03:44.023Z,0
2017-12-23T04:04:43.540Z,0
2017-12-23T04:05:43.801Z,0
2017-12-23T04:06:43.818Z,0
2017-12-23T04:07:43.581Z,0
2017-12-23T04:08:43.349Z,0
2017-12-23T04:09:43.861Z,0
2017-12-23T04:10:44.147Z,0
2017-12-23T04:11:44.142Z,0
2017-12-23T04:12:43.911Z,0
2017-12-23T04:13:43.920Z,0
2017-12-23T04:14:43.684Z,0
2017-12-23T04:15:43.957Z,0
2017-12-23T04:16:43.748Z,0
2017-12-23T04:17:44.042Z,0
2017-12-23T04:18:44.017Z,0
2017-12-23T04:19:43.511Z,0
2017-12-23T04:20:43.279Z,0
2017-12-23T04:21:44.051Z,0
2017-12-23T04:22:43.819Z,0
2017-12-23T04:23:44.093Z,0
2017-12-23T04:24:44.356Z,0
2017-12-23T04:25:44.130Z,0
2017-12-23T04:26:44.129Z,0
2017-12-23T04:27:44.151Z,0
2017-12-23T04:28:43.919Z,0
2017-12-23T04:29:43.684Z,0
2017-12-23T04:30:44.446Z,0
2017-12-23T04:31:43.957Z,0
2017-12-23T04:32:43.789Z,0
2017-12-23T04:33:44.260Z,0
2017-12-23T04:34:44.515Z,0
2017-12-23T04:35:44.269Z,0
2017-12-23T04:36:44.543Z,0
2017-12-23T04:37:44.306Z,0
2017-12-23T04:38:44.319Z,0
2017-12-23T04:39:43.889Z,0
2017-12-23T04:40:44.379Z,0
2017-12-23T04:41:44.116Z,0
2017-12-23T04:42:44.384Z,0
2017-12-23T04:43:44.400Z,0
2017-12-23T04:44:43.911Z,0
2017-12-23T04:45:44.682Z,0
2017-12-23T04:46:44.447Z,0
2017-12-23T04:47:44.513Z,0
2017-12-23T04:48:44.226Z,0
2017-12-23T04:49:44.245Z,0
2017-12-23T04:50:44.269Z,0
2017-12-23T04:51:44.779Z,0
2017-12-23T04:52:44.791Z,0
2017-12-23T04:53:44.304Z,0
2017-12-23T04:54:44.844Z,0
2017-12-23T04:55:44.586Z,0
2017-12-23T04:56:44.352Z,0
2017-12-23T04:57:44.362Z,0
2017-12-23T04:58:44.387Z,0
2017-12-23T04:59:44.646Z,0
2017-12-23T05:00:44.413Z,0
2017-12-23T05:01:44.676Z,0
2017-12-23T05:02:44.249Z,0
2017-12-23T05:03:44.719Z,0
2017-12-23T05:04:44.475Z,0
2017-12-23T05:05:44.239Z,0
2017-12-23T05:06:44.506Z,0
2017-12-23T05:07:44.274Z,0
2017-12-23T05:08:44.290Z,0
2017-12-23T05:09:44.812Z,0
2017-12-23T05:10:44.815Z,0
2017-12-23T05:11:45.089Z,0
2017-12-23T05:12:45.102Z,0
2017-12-23T05:13:44.610Z,0
2017-12-23T05:14:44.628Z,0
2017-12-23T05:15:44.643Z,0
2017-12-23T05:16:44.905Z,0
2017-12-23T05:17:45.177Z,0
2017-12-23T05:18:44.736Z,0
2017-12-23T05:19:45.239Z,0
2017-12-23T05:20:44.717Z,0
2017-12-23T05:21:44.982Z,0
2017-12-23T05:22:44.996Z,0
2017-12-23T05:23:44.761Z,0
2017-12-23T05:24:45.034Z,0
2017-12-23T05:25:45.291Z,0
2017-12-23T05:26:45.119Z,0
2017-12-23T05:27:44.823Z,0
2017-12-23T05:28:45.090Z,0
2017-12-23T05:29:44.854Z,0
2017-12-23T05:30:44.870Z,0
2017-12-23T05:31:45.142Z,0
2017-12-23T05:32:45.159Z,0
2017-12-23T05:33:45.213Z,0
2017-12-23T05:34:44.932Z,0
2017-12-23T05:35:45.464Z,0
2017-12-23T05:36:45.219Z,0
2017-12-23T05:37:45.253Z,0
2017-12-23T05:38:45.301Z,0
2017-12-23T05:39:45.519Z,0
2017-12-23T05:40:45.037Z,0
2017-12-23T05:41:45.057Z,0
2017-12-23T05:42:45.314Z,0
2017-12-23T05:43:45.330Z,0
2017-12-23T05:44:45.351Z,0
2017-12-23T05:45:45.744Z,0
2017-12-23T05:46:45.642Z,0
2017-12-23T05:47:45.177Z,0
2017-12-23T05:48:45.559Z,0
2017-12-23T05:49:45.176Z,0
2017-12-23T05:50:45.694Z,0
2017-12-23T05:51:44.961Z,0
2017-12-23T05:52:45.481Z,0
2017-12-23T05:53:45.507Z,0
2017-12-23T05:54:45.761Z,0
2017-12-23T05:55:45.529Z,0
2017-12-23T05:56:45.536Z,0
2017-12-23T05:57:45.053Z,0
2017-12-23T05:58:45.327Z,0
2017-12-23T05:59:45.585Z,0
2017-12-23T06:00:45.394Z,0
2017-12-23T06:01:45.638Z,0
2017-12-23T06:02:45.896Z,0
2017-12-23T06:03:45.701Z,0
2017-12-23T06:04:45.186Z,0
2017-12-23T06:05:45.678Z,0
2017-12-23T06:06:45.451Z,0
2017-12-23T06:07:45.466Z,0
2017-12-23T06:08:45.738Z,0
2017-12-23T06:09:45.765Z,0
2017-12-23T06:10:45.779Z,0
2017-12-23T06:11:46.043Z,0
2017-12-23T06:12:46.051Z,0
2017-12-23T06:13:45.312Z,0
2017-12-23T06:14:46.079Z,0
2017-12-23T06:15:45.590Z,0
2017-12-23T06:16:45.861Z,0
2017-12-23T06:17:45.884Z,0
2017-12-23T06:18:46.220Z,0
2017-12-23T06:19:45.658Z,0
2017-12-23T06:20:45.932Z,0
2017-12-23T06:21:45.939Z,0
2017-12-23T06:22:45.954Z,0
2017-12-23T06:23:45.981Z,0
2017-12-23T06:24:45.735Z,0
2017-12-23T06:25:46.255Z,0
2017-12-23T06:26:45.766Z,0
2017-12-23T06:27:45.784Z,0
2017-12-23T06:28:46.049Z,0
2017-12-23T06:29:46.065Z,0
2017-12-23T06:30:46.100Z,0
2017-12-23T06:31:46.107Z,0
2017-12-23T06:32:46.375Z,0
2017-12-23T06:33:46.189Z,0
2017-12-23T06:34:46.151Z,0
2017-12-23T06:35:46.186Z,0
2017-12-23T06:36:46.200Z,0
2017-12-23T06:37:46.210Z,0
2017-12-23T06:38:45.962Z,0
2017-12-23T06:39:46.231Z,0
2017-12-23T06:40:46.015Z,0
2017-12-23T06:41:46.260Z,0
2017-12-23T06:42:46.330Z,0
2017-12-23T06:43:46.548Z,0
2017-12-23T06:44:46.312Z,0
2017-12-23T06:45:46.341Z,0
2017-12-23T06:46:46.088Z,0
2017-12-23T06:47:46.661Z,0
2017-12-23T06:48:46.425Z,0
2017-12-23T06:49:46.388Z,0
2017-12-23T06:50:46.159Z,0
2017-12-23T06:51:46.171Z,0
2017-12-23T06:52:46.183Z,0
2017-12-23T06:53:46.702Z,0
2017-12-23T06:54:46.845Z,0
2017-12-23T06:55:46.744Z,0
2017-12-23T06:56:46.244Z,0
2017-12-23T06:57:46.518Z,0
2017-12-23T06:58:46.342Z,0
2017-12-23T06:59:46.814Z,0
2017-12-23T07:00:46.565Z,0
2017-12-23T07:01:46.601Z,0
2017-12-23T07:02:46.603Z,0
2017-12-23T07:03:46.421Z,0
2017-12-23T07:04:46.403Z,0
2017-12-23T07:05:46.690Z,0
2017-12-23T07:06:46.912Z,0
2017-12-23T07:07:46.419Z,0
2017-12-23T07:08:46.191Z,0
2017-12-23T07:09:46.463Z,0
2017-12-23T07:10:46.728Z,0
2017-12-23T07:11:46.747Z,0
2017-12-23T07:12:46.506Z,0
2017-12-23T07:13:46.597Z,5
2017-12-23T07:14:46.807Z,5
2017-12-23T07:15:47.063Z,5
2017-12-23T07:16:46.825Z,5
2017-12-23T07:17:46.582Z,5
2017-12-23T07:18:46.904Z,5
2017-12-23T07:19:46.881Z,5
2017-12-23T07:20:46.888Z,5
2017-12-23T07:21:47.167Z,5
2017-12-23T07:22:46.421Z,10
2017-12-23T07:23:47.185Z,10
2017-12-23T07:24:47.205Z,10
2017-12-23T07:25:46.722Z,10
2017-12-23T07:26:46.727Z,10
2017-12-23T07:27:46.744Z,10
2017-12-23T07:28:47.269Z,10
2017-12-23T07:29:47.039Z,10
2017-12-23T07:30:46.538Z,10
2017-12-23T07:31:47.057Z,10
2017-12-23T07:32:46.821Z,10
2017-12-23T07:33:47.141Z,15
2017-12-23T07:34:46.853Z,15
2017-12-23T07:35:47.370Z,15
2017-12-23T07:36:46.937Z,15
2017-12-23T07:37:47.165Z,15
2017-12-23T07:38:47.170Z,15
2017-12-23T07:39:47.185Z,15
2017-12-23T07:40:47.221Z,20
2017-12-23T07:41:47.216Z,20
2017-12-23T07:42:46.728Z,20
2017-12-23T07:43:46.999Z,20
2017-12-23T07:44:47.270Z,20
2017-12-23T07:45:47.335Z,15
2017-12-23T07:46:47.756Z,15
2017-12-23T07:47:47.059Z,15
2017-12-23T07:48:47.328Z,20
2017-12-23T07:49:47.593Z,20
2017-12-23T07:50:47.668Z,20
2017-12-23T07:51:47.394Z,25
2017-12-23T07:52:47.155Z,25
2017-12-23T07:53:47.419Z,25
2017-12-23T07:54:47.680Z,25
2017-12-23T07:55:47.187Z,25
2017-12-23T07:56:47.460Z,25
2017-12-23T07:57:47.480Z,25
2017-12-23T07:58:47.742Z,20
2017-12-23T07:59:47.507Z,25
2017-12-23T08:00:47.272Z,25
2017-12-23T08:01:47.031Z,25
2017-12-23T08:02:47.553Z,20
2017-12-23T08:03:47.322Z,20
2017-12-23T08:04:47.828Z,20
2017-12-23T08:05:47.392Z,20
2017-12-23T08:06:47.615Z,20
2017-12-23T08:07:47.634Z,25
2017-12-23T08:08:47.398Z,25
2017-12-23T08:09:47.413Z,30
2017-12-23T08:10:48.035Z,30
2017-12-23T08:11:47.442Z,25
2017-12-23T08:12:47.716Z,30
2017-12-23T08:13:47.475Z,30
2017-12-23T08:14:48.044Z,35
2017-12-23T08:15:47.521Z,35
2017-12-23T08:16:47.778Z,35
2017-12-23T08:17:47.545Z,40
2017-12-23T08:18:47.306Z,40
2017-12-23T08:19:47.576Z,40
2017-12-23T08:20:47.914Z,40
2017-12-23T08:21:47.610Z,40
2017-12-23T08:22:48.135Z,35
2017-12-23T08:23:47.896Z,30
2017-12-23T08:24:48.172Z,30
2017-12-23T08:25:47.673Z,35
2017-12-23T08:26:48.198Z,35
2017-12-23T08:27:47.972Z,35
2017-12-23T08:28:47.988Z,35
2017-12-23T08:29:48.002Z,35
2017-12-23T08:30:47.760Z,30
2017-12-23T08:31:47.778Z,30
2017-12-23T08:32:48.041Z,30
2017-12-23T08:33:48.052Z,35
2017-12-23T08:34:47.837Z,35
2017-12-23T08:35:47.894Z,35
2017-12-23T08:36:48.362Z,35
2017-12-23T08:37:48.403Z,40
2017-12-23T08:38:48.398Z,40
2017-12-23T08:39:47.956Z,40
2017-12-23T08:40:48.026Z,35
2017-12-23T08:41:48.198Z,45
2017-12-23T08:42:47.713Z,45
2017-12-23T08:43:47.967Z,45
2017-12-23T08:44:48.493Z,50
2017-12-23T08:45:48.256Z,55
2017-12-23T08:46:48.269Z,55
2017-12-23T08:47:48.294Z,45
2017-12-23T08:48:48.055Z,50
2017-12-23T08:49:48.328Z,50
2017-12-23T08:50:48.185Z,55
2017-12-23T08:51:48.353Z,50
2017-12-23T08:52:48.375Z,45
2017-12-23T08:53:48.646Z,60
2017-12-23T08:54:48.661Z,60
2017-12-23T08:55:48.680Z,60
2017-12-23T08:56:47.949Z,65
2017-12-23T08:57:48.705Z,60
2017-12-23T08:58:48.213Z,55
2017-12-23T08:59:48.762Z,55
2017-12-23T09:00:48.764Z,65
2017-12-23T09:01:48.541Z,65
2017-12-23T09:02:48.283Z,60
2017-12-23T09:03:48.557Z,50
2017-12-23T09:04:48.310Z,50
2017-12-23T09:05:48.373Z,55
2017-12-23T09:06:48.343Z,60
2017-12-23T09:07:48.628Z,50
2017-12-23T09:08:48.632Z,55
2017-12-23T09:09:48.393Z,65
2017-12-23T09:10:48.430Z,60
2017-12-23T09:11:48.190Z,65
2017-12-23T09:12:48.976Z,60
2017-12-23T09:13:48.468Z,65
2017-12-23T09:14:48.986Z,65
2017-12-23T09:15:48.741Z,55
2017-12-23T09:16:49.021Z,60
2017-12-23T09:17:48.527Z,60
2017-12-23T09:18:48.301Z,65
2017-12-23T09:19:48.603Z,65
2017-12-23T09:20:49.126Z,65
2017-12-23T09:21:49.108Z,70
2017-12-23T09:22:48.859Z,75
2017-12-23T09:23:49.131Z,75
2017-12-23T09:24:48.640Z,75
2017-12-23T09:25:48.918Z,75
2017-12-23T09:26:48.933Z,75
2017-12-23T09:27:48.436Z,85
2017-12-23T09:28:48.962Z,80
2017-12-23T09:29:49.230Z,80
2017-12-23T09:30:48.995Z,80
2017-12-23T09:31:49.213Z,80
2017-12-23T09:32:49.025Z,70
2017-12-23T09:33:49.040Z,70
2017-12-23T09:34:48.805Z,80
2017-12-23T09:35:48.632Z,70
2017-12-23T09:36:48.839Z,70
2017-12-23T09:37:48.860Z,65
2017-12-23T09:38:49.140Z,70
2017-12-23T09:39:48.892Z,65
2017-12-23T09:40:49.159Z,65
2017-12-23T09:41:49.177Z,65
2017-12-23T09:42:49.193Z,60
2017-12-23T09:43:48.954Z,60
2017-12-23T09:44:49.481Z,55
2017-12-23T09:45:48.994Z,50
2017-12-23T09:46:49.012Z,60
2017-12-23T09:47:48.772Z,65
2017-12-23T09:48:49.284Z,60
2017-12-23T09:49:49.554Z,60
2017-12-23T09:50:49.594Z,70
2017-12-23T09:51:49.343Z,75
2017-12-23T09:52:49.613Z,70
2017-12-23T09:53:49.115Z,65
2017-12-23T09:54:49.141Z,75
2017-12-23T09:55:49.400Z,85
2017-12-23T09:56:49.411Z,75
2017-12-23T09:57:49.431Z,65
2017-12-23T09:58:49.202Z,75
2017-12-23T09:59:48.958Z,80
2017-12-23T10:00:49.754Z,95
2017-12-23T10:01:49.764Z,90
2017-12-23T10:02:49.769Z,95
2017-12-23T10:03:49.549Z,95
2017-12-23T10:04:49.546Z,90
2017-12-23T10:05:49.828Z,85
2017-12-23T10:06:49.831Z,85
2017-12-23T10:07:49.645Z,85
2017-12-23T10:08:49.862Z,80
2017-12-23T10:09:49.381Z,75
2017-12-23T10:10:49.648Z,70
2017-12-23T10:11:49.669Z,85
2017-12-23T10:12:49.680Z,105
2017-12-23T10:13:49.437Z,100
2017-12-23T10:14:49.961Z,80
2017-12-23T10:15:49.970Z,75
2017-12-23T10:16:49.488Z,65
2017-12-23T10:17:49.601Z,70
2017-12-23T10:18:49.517Z,75
2017-12-23T10:19:49.790Z,85
2017-12-23T10:20:49.807Z,105
2017-12-23T10:21:49.826Z,110
2017-12-23T10:22:49.887Z,115
2017-12-23T10:23:49.346Z,115
2017-12-23T10:24:49.681Z,120
2017-12-23T10:25:49.630Z,120
2017-12-23T10:26:49.649Z,120
2017-12-23T10:27:49.665Z,120
2017-12-23T10:28:49.940Z,135
2017-12-23T10:29:50.212Z,130
2017-12-23T10:30:49.720Z,155
2017-12-23T10:31:50.246Z,160
2017-12-23T10:32:49.752Z,185
2017-12-23T10:33:50.269Z,190
2017-12-23T10:34:50.296Z,165
2017-12-23T10:35:50.075Z,160
2017-12-23T10:36:50.087Z,145
2017-12-23T10:37:49.889Z,125
2017-12-23T10:38:50.373Z,115
2017-12-23T10:39:49.902Z,110
2017-12-23T10:40:49.893Z,110
2017-12-23T10:41:50.420Z,110
2017-12-23T10:42:50.449Z,120
2017-12-23T10:43:50.452Z,120
2017-12-23T10:44:50.470Z,135
2017-12-23T10:45:49.722Z,160
2017-12-23T10:46:50.248Z,170
2017-12-23T10:47:50.517Z,165
2017-12-23T10:48:50.026Z,160
2017-12-23T10:49:50.303Z,160
2017-12-23T10:50:50.065Z,150
2017-12-23T10:51:50.586Z,170
2017-12-23T10:52:50.393Z,215
2017-12-23T10:53:50.614Z,215
2017-12-23T10:54:50.128Z,195
2017-12-23T10:55:50.652Z,155
2017-12-23T10:56:50.689Z,155
2017-12-23T10:57:50.437Z,155
2017-12-23T10:58:50.446Z,195
2017-12-23T10:59:50.481Z,230
2017-12-23T11:00:50.743Z,265
2017-12-23T11:01:50.201Z,275
2017-12-23T11:02:50.263Z,250
2017-12-23T11:03:50.537Z,220
2017-12-23T11:04:50.294Z,215
2017-12-23T11:05:50.816Z,225
2017-12-23T11:06:50.332Z,245
2017-12-23T11:07:50.912Z,265
2017-12-23T11:08:50.727Z,280
2017-12-23T11:09:50.645Z,240
2017-12-23T11:10:50.909Z,205
2017-12-23T11:11:50.938Z,195
2017-12-23T11:12:50.695Z,155
2017-12-23T11:13:50.454Z,210
2017-12-23T11:14:50.722Z,210
2017-12-23T11:15:50.998Z,260
2017-12-23T11:16:51.015Z,310
2017-12-23T11:17:50.796Z,275
2017-12-23T11:18:50.893Z,250
2017-12-23T11:19:50.812Z,250
2017-12-23T11:20:51.083Z,305
2017-12-23T11:21:50.806Z,585
2017-12-23T11:22:50.865Z,275
2017-12-23T11:23:50.695Z,195
2017-12-23T11:24:50.722Z,175
2017-12-23T11:25:50.665Z,210
2017-12-23T11:26:50.954Z,200
2017-12-23T11:27:50.704Z,185
2017-12-23T11:28:50.970Z,175
2017-12-23T11:29:50.741Z,165
2017-12-23T11:30:51.009Z,165
2017-12-23T11:31:51.029Z,155
2017-12-23T11:32:51.043Z,160
2017-12-23T11:33:50.810Z,160
2017-12-23T11:34:50.827Z,140
2017-12-23T11:35:50.844Z,130
2017-12-23T11:36:50.858Z,115
2017-12-23T11:37:50.624Z,115
2017-12-23T11:38:51.210Z,130
2017-12-23T11:39:50.908Z,145
2017-12-23T11:40:50.932Z,155
2017-12-23T11:41:51.457Z,170
2017-12-23T11:42:50.959Z,175
2017-12-23T11:43:51.228Z,185
2017-12-23T11:44:51.240Z,150
2017-12-23T11:45:51.008Z,160
2017-12-23T11:46:51.022Z,165
2017-12-23T11:47:51.301Z,155
2017-12-23T11:48:51.060Z,145
2017-12-23T11:49:51.358Z,195
2017-12-23T11:50:51.618Z,210
2017-12-23T11:51:50.617Z,180
2017-12-23T11:52:51.398Z,150
2017-12-23T11:53:51.470Z,145
2017-12-23T11:54:51.179Z,150
2017-12-23T11:55:51.698Z,150
2017-12-23T11:56:51.465Z,115
2017-12-23T11:57:51.735Z,120
2017-12-23T11:58:51.749Z,135
2017-12-23T11:59:51.765Z,140
2017-12-23T12:00:51.524Z,130
2017-12-23T12:01:51.543Z,120
2017-12-23T12:02:51.814Z,120
2017-12-23T12:03:51.587Z,125
2017-12-23T12:04:51.089Z,145
2017-12-23T12:05:51.614Z,155
2017-12-23T12:06:51.880Z,165
2017-12-23T12:07:51.650Z,135
2017-12-23T12:08:51.970Z,120
2017-12-23T12:09:51.430Z,125
2017-12-23T12:10:51.696Z,130
2017-12-23T12:11:51.719Z,125
2017-12-23T12:12:51.477Z,110
2017-12-23T12:13:52.009Z,125
2017-12-23T12:14:51.779Z,170
2017-12-23T12:15:52.045Z,305
2017-12-23T12:16:51.835Z,210
2017-12-23T12:17:51.561Z,200
2017-12-23T12:18:51.590Z,215
2017-12-23T12:19:51.856Z,295
2017-12-23T12:20:52.165Z,280
2017-12-23T12:21:52.142Z,235
2017-12-23T12:22:51.905Z,405
2017-12-23T12:23:52.006Z,405
2017-12-23T12:24:52.198Z,230
2017-12-23T12:25:51.705Z,480
2017-12-23T12:26:51.990Z,395
2017-12-23T12:27:51.739Z,335
2017-12-23T12:28:52.009Z,350
2017-12-23T12:29:51.777Z,730
2017-12-23T12:30:52.315Z,230
2017-12-23T12:31:52.368Z,180
2017-12-23T12:32:51.829Z,170
2017-12-23T12:33:52.114Z,190
2017-12-23T12:34:52.370Z,175
2017-12-23T12:35:52.139Z,150
2017-12-23T12:36:52.404Z,210
2017-12-23T12:37:52.166Z,205
2017-12-23T12:38:52.540Z,190
2017-12-23T12:39:51.941Z,200
2017-12-23T12:40:52.220Z,285
2017-12-23T12:41:52.229Z,330
2017-12-23T12:42:52.302Z,330
2017-12-23T12:43:52.522Z,725
2017-12-23T12:44:52.293Z,295
2017-12-23T12:45:52.305Z,235
2017-12-23T12:46:52.580Z,215
2017-12-23T12:47:51.836Z,270
2017-12-23T12:48:52.616Z,310
2017-12-23T12:49:52.376Z,445
2017-12-23T12:50:52.395Z,1490
2017-12-23T12:51:52.419Z,535
2017-12-23T12:52:52.436Z,375
2017-12-23T12:53:52.259Z,295
2017-12-23T12:54:52.214Z,555
2017-12-23T12:55:52.576Z,305
2017-12-23T12:56:52.246Z,690
2017-12-23T12:57:52.776Z,1055
2017-12-23T12:58:52.534Z,615
2017-12-23T12:59:52.317Z,1215
2017-12-23T13:00:52.834Z,1290
2017-12-23T13:01:52.373Z,1440
2017-12-23T13:02:52.620Z,1585
2017-12-23T13:03:52.643Z,1990
2017-12-23T13:04:52.658Z,1940
2017-12-23T13:05:52.685Z,1375
2017-12-23T13:06:52.447Z,1615
2017-12-23T13:07:52.588Z,1230
2017-12-23T13:08:52.787Z,1120
2017-12-23T13:09:52.505Z,1270
2017-12-23T13:10:52.535Z,990
2017-12-23T13:11:52.556Z,780
2017-12-23T13:12:52.824Z,575
2017-12-23T13:13:53.104Z,395
2017-12-23T13:14:52.618Z,370
2017-12-23T13:15:52.908Z,360
2017-12-23T13:16:53.171Z,410
2017-12-23T13:17:52.682Z,365
2017-12-23T13:18:52.717Z,340
2017-12-23T13:19:52.730Z,365
2017-12-23T13:20:52.752Z,420
2017-12-23T13:21:52.771Z,385
2017-12-23T13:22:53.048Z,280
2017-12-23T13:23:52.878Z,275
2017-12-23T13:24:52.577Z,280
2017-12-23T13:25:53.232Z,260
2017-12-23T13:26:53.131Z,285
2017-12-23T13:27:53.144Z,300
2017-12-23T13:28:53.441Z,300
2017-12-23T13:29:52.748Z,305
2017-12-23T13:30:53.455Z,320
2017-12-23T13:31:53.478Z,285
2017-12-23T13:32:53.244Z,280
2017-12-23T13:33:53.265Z,255
2017-12-23T13:34:53.028Z,245
2017-12-23T13:35:53.297Z,235
2017-12-23T13:36:53.063Z,235
2017-12-23T13:37:53.334Z,235
2017-12-23T13:38:53.356Z,225
2017-12-23T13:39:53.174Z,215
2017-12-23T13:40:53.405Z,215
2017-12-23T13:41:53.682Z,225
2017-12-23T13:42:53.433Z,230
2017-12-23T13:43:53.720Z,235
2017-12-23T13:44:53.506Z,250
2017-12-23T13:45:53.232Z,280
2017-12-23T13:46:53.510Z,295
2017-12-23T13:47:53.288Z,285
2017-12-23T13:48:53.296Z,285
2017-12-23T13:49:53.571Z,275
2017-12-23T13:50:53.832Z,245
2017-12-23T13:51:53.620Z,245
2017-12-23T13:52:53.360Z,250
2017-12-23T13:53:53.901Z,250
2017-12-23T13:54:53.404Z,230
2017-12-23T13:55:53.783Z,260
2017-12-23T13:56:53.192Z,260
2017-12-23T13:57:53.955Z,225
2017-12-23T13:58:53.764Z,205
2017-12-23T13:59:54.008Z,215
2017-12-23T14:00:53.789Z,215
2017-12-23T14:01:54.055Z,220
2017-12-23T14:02:53.299Z,210
2017-12-23T14:03:53.801Z,180
2017-12-23T14:04:53.838Z,170
2017-12-23T14:05:53.344Z,165
2017-12-23T14:06:54.103Z,160
2017-12-23T14:07:54.137Z,160
2017-12-23T14:08:53.656Z,155
2017-12-23T14:09:53.921Z,155
2017-12-23T14:10:54.242Z,160
2017-12-23T14:11:53.946Z,160
2017-12-23T14:12:53.702Z,160
2017-12-23T14:13:53.771Z,155
2017-12-23T14:14:53.769Z,155
2017-12-23T14:15:53.756Z,150
2017-12-23T14:16:53.780Z,145
2017-12-23T14:17:53.546Z,140
2017-12-23T14:18:54.062Z,135
2017-12-23T14:19:54.386Z,130
2017-12-23T14:20:54.096Z,130
2017-12-23T14:21:54.385Z,125
2017-12-23T14:22:54.389Z,125